Time;durP1;ratioP1;P1;durP2;ratioP2;P2;SDS_P1;SDS_P2;PMS_P1;PMS_P2;Temp;Humidity;BMP_temperature;BMP_pressure;BME280_temperature;BME280_humidity;BME280_pressure;Samples;Min_cycle;Max_cycle;Signal;HPM_P1;HPM_P2
2020/12/19 15:37:20;;;;;;;2.53;1.30;;;18.40;52.50;;;;;;5028211;23;20073;-47
2020/12/19 15:39:47;;;;;;;2.03;1.15;;;18.40;52.60;;;;;;4996823;28;20341;-49
2020/12/19 15:42:12;;;;;;;1.77;1.00;;;18.40;52.50;;;;;;4996709;28;20121;-49
2020/12/19 15:44:38;;;;;;;0.70;0.70;;;18.40;52.40;;;;;;4997237;28;20042;-50
2020/12/19 15:47:03;;;;;;;2.00;1.10;;;18.50;52.50;;;;;;4996330;28;20077;-48
2020/12/19 15:49:29;;;;;;;1.77;1.10;;;18.50;52.40;;;;;;4997250;28;20451;-52
2020/12/19 15:51:55;;;;;;;0.98;0.90;;;18.50;52.40;;;;;;4996368;28;20035;-51
2020/12/19 15:54:20;;;;;;;3.35;1.05;;;18.60;52.50;;;;;;4997063;28;20079;-51
2020/12/19 15:56:47;;;;;;;3.42;1.17;;;18.60;52.50;;;;;;4996697;28;20349;-50
2020/12/19 15:59:13;;;;;;;2.50;0.85;;;18.70;52.50;;;;;;4996632;28;20035;-49
2020/12/19 16:01:40;;;;;;;8.35;1.23;;;18.70;52.40;;;;;;4996167;28;20027;-49
2020/12/19 16:04:05;;;;;;;3.70;1.08;;;18.70;52.50;;;;;;4996453;28;20076;-51
2020/12/19 16:06:31;;;;;;;4.68;0.98;;;18.80;52.50;;;;;;4996424;28;20073;-50
2020/12/19 16:08:56;;;;;;;2.25;1.00;;;18.80;52.50;;;;;;4996821;28;20049;-49
2020/12/19 16:11:23;;;;;;;7.20;1.15;;;18.80;52.40;;;;;;4996430;28;20034;-55
2020/12/19 16:13:49;;;;;;;0.90;0.77;;;18.80;52.50;;;;;;4996427;28;20042;-52
2020/12/19 16:16:14;;;;;;;6.07;1.50;;;18.80;52.40;;;;;;4996479;28;20038;-50
2020/12/19 16:18:39;;;;;;;2.65;1.25;;;18.80;52.40;;;;;;4996146;28;20477;-52
2020/12/19 16:21:05;;;;;;;2.08;1.20;;;18.90;52.40;;;;;;4996353;28;20034;-53
2020/12/19 16:23:31;;;;;;;6.45;1.60;;;18.90;52.40;;;;;;4996252;28;20449;-48
2020/12/19 16:25:56;;;;;;;6.10;2.15;;;18.90;52.20;;;;;;4996059;28;20384;-50
2020/12/19 16:28:22;;;;;;;4.65;2.00;;;18.90;51.60;;;;;;4995996;28;20030;-49
2020/12/19 16:30:47;;;;;;;4.43;2.10;;;18.80;51.80;;;;;;4996051;28;20092;-50
2020/12/19 16:33:13;;;;;;;6.15;1.90;;;18.80;52.00;;;;;;4995848;28;20034;-49
2020/12/19 16:35:39;;;;;;;3.67;1.75;;;18.80;52.20;;;;;;4996003;28;20077;-48
2020/12/19 16:38:08;;;;;;;2.20;1.20;;;18.80;52.60;;;;;;4996189;28;20423;-52
2020/12/19 16:40:34;;;;;;;2.47;1.30;;;18.80;52.70;;;;;;4996199;28;20034;-49
2020/12/19 16:43:00;;;;;;;3.70;1.50;;;18.80;53.50;;;;;;4995556;28;20066;-53
2020/12/19 16:45:25;;;;;;;3.20;1.80;;;18.90;53.60;;;;;;4995345;28;20058;-51
2020/12/19 16:47:52;;;;;;;3.95;1.58;;;18.90;52.80;;;;;;4995806;28;20034;-50
2020/12/19 16:50:21;;;;;;;6.45;1.75;;;18.90;52.80;;;;;;4995825;28;20458;-50
2020/12/19 16:52:46;;;;;;;5.85;1.92;;;19.00;52.80;;;;;;4995415;28;20054;-50
2020/12/19 16:55:12;;;;;;;4.75;1.67;;;19.00;52.90;;;;;;4995707;28;20080;-49
2020/12/19 16:57:46;;;;;;;4.00;1.40;;;19.00;53.50;;;;;;4996011;28;20069;-52
2020/12/19 17:00:11;;;;;;;3.42;1.67;;;19.10;53.70;;;;;;4995650;28;20045;-54
2020/12/19 17:02:38;;;;;;;5.05;1.52;;;19.10;53.50;;;;;;4995586;28;20035;-50
2020/12/19 17:05:05;;;;;;;3.80;1.48;;;19.20;53.40;;;;;;4995701;28;20042;-50
2020/12/19 17:07:31;;;;;;;5.00;1.30;;;19.30;53.30;;;;;;4995351;28;20030;-51
2020/12/19 17:09:56;;;;;;;3.38;2.15;;;19.30;53.20;;;;;;4995574;28;20042;-49
2020/12/19 17:12:22;;;;;;;1.83;1.30;;;19.40;53.10;;;;;;4995334;28;20034;-49
2020/12/19 17:14:48;;;;;;;4.40;1.27;;;19.50;53.00;;;;;;4995609;28;20081;-53
2020/12/19 17:17:14;;;;;;;1.88;1.50;;;19.60;52.90;;;;;;4995480;28;20034;-53
2020/12/19 17:19:39;;;;;;;4.85;1.45;;;19.60;52.90;;;;;;4995336;28;20420;-48
2020/12/19 17:22:05;;;;;;;5.18;1.33;;;19.70;53.50;;;;;;4995476;28;20069;-52
2020/12/19 17:24:31;;;;;;;4.43;1.38;;;19.80;52.80;;;;;;4995917;28;20054;-48
2020/12/19 17:26:56;;;;;;;3.25;1.17;;;19.80;52.60;;;;;;4995585;28;20088;-52
2020/12/19 17:29:25;;;;;;;2.63;0.82;;;19.90;52.60;;;;;;4995639;28;20035;-52
2020/12/19 17:31:51;;;;;;;2.35;1.15;;;19.90;52.50;;;;;;4995392;28;20036;-48
2020/12/19 17:34:16;;;;;;;1.48;1.13;;;20.00;52.40;;;;;;4995064;28;20508;-49
2020/12/19 17:36:42;;;;;;;1.63;1.02;;;20.00;52.30;;;;;;4995444;28;20129;-48
2020/12/19 17:39:07;;;;;;;2.55;1.38;;;20.00;52.30;;;;;;4995465;28;20068;-48
2020/12/19 17:41:34;;;;;;;5.35;1.33;;;20.10;52.30;;;;;;4994923;28;20065;-53
2020/12/19 17:44:00;;;;;;;2.03;1.20;;;20.10;52.30;;;;;;4995395;28;20058;-51
2020/12/19 17:46:26;;;;;;;2.10;1.23;;;20.20;52.30;;;;;;4994959;28;20133;-49
2020/12/19 17:48:55;;;;;;;3.03;0.88;;;20.20;52.20;;;;;;4995645;28;20038;-56
2020/12/19 17:51:21;;;;;;;3.67;1.30;;;20.20;52.20;;;;;;4995618;28;20349;-51
2020/12/19 17:53:48;;;;;;;2.55;1.08;;;20.30;52.20;;;;;;4997524;28;20037;-52
2020/12/19 17:56:15;;;;;;;2.58;1.00;;;20.30;52.20;;;;;;4999183;28;20188;-49
2020/12/19 17:58:40;;;;;;;3.92;1.30;;;20.30;52.10;;;;;;4998934;28;20039;-49
2020/12/19 18:01:07;;;;;;;2.17;1.00;;;20.30;52.10;;;;;;4982330;28;20053;-54
2020/12/19 18:03:32;;;;;;;1.25;0.90;;;20.40;52.10;;;;;;4999192;28;20030;-48
2020/12/19 18:06:06;;;;;;;2.88;1.10;;;20.40;52.60;;;;;;4998733;28;20057;-47
2020/12/19 18:08:32;;;;;;;2.30;0.90;;;20.50;52.00;;;;;;4998772;28;20357;-52
2020/12/19 18:10:58;;;;;;;1.60;1.10;;;20.50;51.90;;;;;;4998802;28;20093;-52
2020/12/19 18:13:26;;;;;;;2.17;1.10;;;20.50;51.90;;;;;;4998583;28;20027;-56
2020/12/19 18:15:53;;;;;;;2.95;1.20;;;20.50;51.80;;;;;;4998268;28;20441;-51
2020/12/19 18:18:19;;;;;;;1.63;1.08;;;20.60;51.80;;;;;;4998674;28;20062;-49
2020/12/19 18:20:45;;;;;;;2.28;1.08;;;20.60;51.70;;;;;;4998552;28;20077;-47
2020/12/19 18:23:11;;;;;;;1.88;1.25;;;20.60;51.70;;;;;;4998650;28;20058;-53
2020/12/19 18:25:36;;;;;;;1.20;1.00;;;20.70;51.80;;;;;;4998427;28;20393;-48
2020/12/19 18:28:02;;;;;;;4.95;1.20;;;20.70;51.80;;;;;;4998442;28;20041;-49
2020/12/19 18:30:27;;;;;;;1.23;1.13;;;20.70;51.80;;;;;;4998240;28;20113;-52
2020/12/19 18:32:53;;;;;;;3.95;1.10;;;20.70;51.80;;;;;;4998367;28;20026;-48
2020/12/19 18:35:18;;;;;;;1.17;1.08;;;20.70;51.80;;;;;;4998444;28;20069;-55
2020/12/19 18:37:44;;;;;;;2.40;1.10;;;20.80;51.70;;;;;;4998356;28;20054;-53
2020/12/19 18:40:09;;;;;;;1.92;0.93;;;20.80;51.70;;;;;;4998007;28;20046;-53
2020/12/19 18:42:35;;;;;;;4.38;1.23;;;20.80;51.70;;;;;;4998335;28;20464;-48
2020/12/19 18:45:00;;;;;;;2.47;1.20;;;20.80;51.70;;;;;;4998415;28;20039;-51
2020/12/19 18:47:26;;;;;;;1.50;1.10;;;20.90;51.80;;;;;;4997745;28;20034;-51
2020/12/19 18:49:52;;;;;;;2.15;1.00;;;20.90;51.70;;;;;;4997995;28;20372;-51
2020/12/19 18:52:18;;;;;;;4.90;1.02;;;20.90;51.60;;;;;;4997854;28;20037;-49
2020/12/19 18:54:44;;;;;;;1.55;0.90;;;20.90;51.60;;;;;;4997577;28;20038;-51
2020/12/19 18:57:10;;;;;;;1.83;0.93;;;21.00;51.60;;;;;;4997818;28;20039;-47
2020/12/19 18:59:36;;;;;;;1.42;0.90;;;21.00;51.60;;;;;;4996817;28;20089;-47
2020/12/19 19:02:02;;;;;;;2.67;0.90;;;21.00;51.60;;;;;;4996625;28;20034;-48
2020/12/19 19:04:27;;;;;;;1.55;1.05;;;21.00;51.60;;;;;;4996554;28;20065;-50
2020/12/19 19:06:53;;;;;;;1.08;0.77;;;21.00;51.60;;;;;;4997712;28;20049;-48
2020/12/19 19:09:18;;;;;;;1.13;0.90;;;21.10;51.60;;;;;;4997403;28;20034;-52
2020/12/19 19:11:45;;;;;;;1.45;1.05;;;21.10;51.60;;;;;;4996451;28;20046;-52
2020/12/19 19:14:10;;;;;;;4.57;0.82;;;21.10;51.60;;;;;;4980268;28;20357;-52
2020/12/19 19:16:36;;;;;;;1.85;0.98;;;21.20;51.60;;;;;;4996889;28;20034;-53
2020/12/19 19:19:09;;;;;;;1.30;0.80;;;21.20;51.50;;;;;;4997902;28;20034;-52
2020/12/19 19:21:44;;;;;;;1.50;0.83;;;21.20;51.50;;;;;;4997905;28;20464;-50
2020/12/19 19:24:12;;;;;;;2.22;1.08;;;21.30;51.50;;;;;;4997429;28;20761;-53
2020/12/19 19:26:37;;;;;;;1.17;0.90;;;21.20;51.30;;;;;;4996852;28;20361;-48
2020/12/19 19:29:06;;;;;;;1.35;0.75;;;21.30;51.30;;;;;;4996671;28;20045;-48
2020/12/19 19:31:45;;;;;;;1.55;1.00;;;21.30;51.30;;;;;;4995316;28;20034;-51
2020/12/19 19:34:13;;;;;;;2.10;0.82;;;21.30;51.30;;;;;;4997076;28;20484;-48
2020/12/19 19:36:50;;;;;;;1.10;0.88;;;21.30;51.30;;;;;;4997032;28;20042;-53
2020/12/19 19:39:17;;;;;;;1.50;0.85;;;21.30;51.20;;;;;;4996483;28;20065;-55
2020/12/19 19:41:44;;;;;;;2.33;1.00;;;21.30;51.20;;;;;;4996628;28;20048;-51
2020/12/19 19:44:10;;;;;;;1.50;0.77;;;21.40;51.20;;;;;;4996780;28;20035;-50
2020/12/19 19:46:37;;;;;;;1.77;1.10;;;21.30;51.10;;;;;;4996769;28;20162;-47
2020/12/19 19:49:02;;;;;;;2.55;1.38;;;21.30;51.10;;;;;;4996930;28;20033;-48
2020/12/19 19:51:28;;;;;;;1.45;0.80;;;21.30;51.20;;;;;;4996680;28;20026;-49
2020/12/19 19:53:53;;;;;;;1.42;1.02;;;21.40;51.20;;;;;;4980437;28;20073;-54
2020/12/19 19:56:19;;;;;;;3.13;1.08;;;21.40;51.20;;;;;;4996371;28;20030;-49
2020/12/19 19:58:44;;;;;;;2.25;0.90;;;21.40;51.20;;;;;;4996964;28;20044;-52
2020/12/19 20:01:10;;;;;;;1.95;1.10;;;21.40;51.30;;;;;;4996748;28;20105;-52
2020/12/19 20:03:35;;;;;;;1.85;1.15;;;21.40;51.20;;;;;;4996799;28;20449;-51
2020/12/19 20:06:01;;;;;;;2.88;1.40;;;21.30;51.20;;;;;;4996328;28;20053;-54
2020/12/19 20:08:27;;;;;;;1.38;1.25;;;21.40;51.20;;;;;;4996393;28;20034;-53
2020/12/19 20:10:53;;;;;;;1.30;1.10;;;21.40;51.20;;;;;;4996430;28;20034;-49
2020/12/19 20:13:19;;;;;;;3.25;1.35;;;21.40;51.20;;;;;;4996197;28;20449;-49
2020/12/19 20:15:45;;;;;;;2.00;1.65;;;21.40;51.10;;;;;;4996004;28;20049;-51
2020/12/19 20:18:10;;;;;;;1.30;1.20;;;21.40;51.10;;;;;;4996483;28;20042;-49
2020/12/19 20:20:36;;;;;;;2.08;1.48;;;21.40;51.10;;;;;;4996445;28;20450;-50
2020/12/19 20:23:02;;;;;;;2.53;1.45;;;21.40;51.00;;;;;;4996083;28;20034;-50
2020/12/19 20:25:27;;;;;;;3.42;1.45;;;21.30;51.00;;;;;;4996266;28;20046;-51
2020/12/19 20:27:53;;;;;;;3.33;1.60;;;21.40;51.00;;;;;;4996163;28;20109;-52
2020/12/19 20:30:18;;;;;;;2.25;1.50;;;21.30;50.90;;;;;;4996216;28;20105;-48
2020/12/19 20:32:44;;;;;;;2.85;1.60;;;21.40;50.90;;;;;;4996238;28;20432;-51
2020/12/19 20:35:11;;;;;;;1.40;1.27;;;21.40;50.90;;;;;;4995729;28;20353;-50
2020/12/19 20:37:37;;;;;;;2.30;1.30;;;21.40;50.90;;;;;;4995664;28;20384;-52
2020/12/19 20:40:04;;;;;;;1.95;1.10;;;21.40;50.80;;;;;;4996320;28;20034;-50
2020/12/19 20:42:31;;;;;;;2.45;1.42;;;21.40;50.80;;;;;;4995906;28;20125;-51
2020/12/19 20:44:56;;;;;;;3.15;1.15;;;21.30;50.70;;;;;;4995473;28;20457;-51
2020/12/19 20:47:24;;;;;;;4.15;1.73;;;21.40;50.70;;;;;;4995796;28;20034;-50
2020/12/19 20:49:50;;;;;;;1.80;1.20;;;21.40;50.70;;;;;;4995843;28;20031;-51
2020/12/19 20:52:17;;;;;;;1.35;1.25;;;21.40;50.70;;;;;;4995695;28;20042;-52
2020/12/19 20:54:43;;;;;;;2.05;1.30;;;21.40;50.70;;;;;;4995844;28;20038;-49
2020/12/19 20:57:08;;;;;;;1.70;1.10;;;21.40;50.70;;;;;;4995913;28;20556;-50
2020/12/19 20:59:35;;;;;;;1.63;1.30;;;21.40;50.70;;;;;;4995240;28;20034;-53
2020/12/19 21:02:01;;;;;;;5.10;1.30;;;21.40;50.70;;;;;;4995284;28;20114;-50
2020/12/19 21:04:26;;;;;;;4.07;1.65;;;21.40;50.60;;;;;;4994867;28;20117;-50
2020/12/19 21:06:52;;;;;;;1.52;1.15;;;21.40;50.60;;;;;;4995521;28;20152;-48
2020/12/19 21:09:17;;;;;;;1.20;1.10;;;21.40;50.50;;;;;;4995895;28;20517;-51
2020/12/19 21:11:43;;;;;;;1.58;1.13;;;21.40;50.60;;;;;;4995340;28;20054;-51
2020/12/19 21:14:08;;;;;;;3.17;1.27;;;21.40;50.70;;;;;;4995083;28;20109;-54
2020/12/19 21:16:34;;;;;;;2.50;1.25;;;21.40;50.80;;;;;;4995424;28;20097;-52
2020/12/19 21:18:59;;;;;;;2.25;1.48;;;21.40;50.70;;;;;;4995135;28;20070;-53
2020/12/19 21:21:26;;;;;;;1.17;1.05;;;21.40;50.70;;;;;;4995369;28;20077;-50
2020/12/19 21:23:52;;;;;;;1.90;1.30;;;21.40;50.60;;;;;;4995633;28;20026;-50
2020/12/19 21:26:22;;;;;;;1.33;1.15;;;21.40;50.60;;;;;;4995113;28;20047;-50
2020/12/19 21:28:47;;;;;;;2.40;1.05;;;21.40;50.60;;;;;;4998560;28;20152;-50
2020/12/19 21:31:15;;;;;;;5.25;1.05;;;21.40;50.50;;;;;;4999472;28;20043;-51
2020/12/19 21:33:40;;;;;;;1.00;0.95;;;21.40;50.50;;;;;;4999792;28;20030;-51
2020/12/19 21:36:06;;;;;;;1.23;1.05;;;21.40;50.50;;;;;;4999569;28;20330;-54
2020/12/19 21:38:32;;;;;;;1.55;1.23;;;21.40;50.50;;;;;;4999478;28;20074;-50
2020/12/19 21:40:57;;;;;;;2.15;0.98;;;21.40;50.50;;;;;;4998928;28;20113;-48
2020/12/19 21:43:23;;;;;;;2.10;1.00;;;21.40;50.40;;;;;;4999244;28;20401;-50
2020/12/19 21:45:48;;;;;;;3.13;1.20;;;21.40;50.40;;;;;;4999116;28;20521;-51
2020/12/19 21:48:14;;;;;;;1.67;1.27;;;21.40;50.40;;;;;;4998645;28;20476;-49
2020/12/19 21:50:39;;;;;;;1.23;1.02;;;21.40;50.30;;;;;;4998584;28;20113;-52
2020/12/19 21:53:05;;;;;;;1.08;0.98;;;21.30;50.40;;;;;;4999125;28;20434;-53
2020/12/19 21:55:30;;;;;;;1.30;1.20;;;21.40;50.50;;;;;;4998964;28;20453;-55
2020/12/19 21:57:56;;;;;;;1.50;1.10;;;21.30;50.30;;;;;;4998805;28;20045;-49
2020/12/19 22:00:23;;;;;;;2.67;1.08;;;21.30;50.30;;;;;;4998686;28;20038;-50
2020/12/19 22:02:49;;;;;;;1.52;1.10;;;21.30;50.30;;;;;;4998569;28;20034;-51
2020/12/19 22:05:16;;;;;;;0.93;0.80;;;21.30;50.30;;;;;;4998765;28;20042;-52
2020/12/19 22:07:44;;;;;;;1.10;0.80;;;21.30;50.30;;;;;;4998772;28;20037;-49
2020/12/19 22:10:13;;;;;;;1.20;0.93;;;21.30;50.40;;;;;;4998831;28;20465;-54
2020/12/19 22:12:39;;;;;;;1.27;0.77;;;21.20;50.40;;;;;;4998471;28;20030;-47
2020/12/19 22:15:09;;;;;;;1.38;0.90;;;21.20;50.50;;;;;;4998563;28;20042;-50
2020/12/19 22:17:35;;;;;;;1.30;1.10;;;21.20;50.40;;;;;;4998682;28;20171;-48
2020/12/19 22:20:01;;;;;;;1.77;1.17;;;21.20;50.50;;;;;;4998805;28;20031;-52
2020/12/19 22:22:27;;;;;;;1.52;0.88;;;21.20;50.50;;;;;;4998497;28;20034;-53
2020/12/19 22:24:54;;;;;;;1.52;0.65;;;21.20;50.50;;;;;;4998125;28;20061;-51
2020/12/19 22:27:38;;;;;;;3.47;1.13;;;21.20;50.50;;;;;;4998002;28;20794;-49
2020/12/19 22:30:04;;;;;;;1.52;0.90;;;21.20;51.20;;;;;;4998403;28;20065;-51
2020/12/19 22:32:30;;;;;;;2.35;0.77;;;21.10;50.60;;;;;;4998564;28;20073;-49
2020/12/19 22:34:57;;;;;;;3.33;1.10;;;21.10;50.80;;;;;;4998590;28;20045;-50
2020/12/19 22:37:29;;;;;;;3.33;0.82;;;21.10;50.80;;;;;;4998443;28;20057;-50
2020/12/19 22:39:55;;;;;;;3.53;1.43;;;21.10;50.80;;;;;;4997959;28;20096;-51
2020/12/19 22:42:21;;;;;;;0.93;0.70;;;21.10;50.80;;;;;;4981194;28;20346;-52
2020/12/19 22:44:47;;;;;;;3.13;1.00;;;21.10;50.80;;;;;;4998278;28;20050;-50
2020/12/19 22:47:13;;;;;;;0.63;0.60;;;21.00;50.90;;;;;;4998189;28;20034;-50
2020/12/19 22:49:39;;;;;;;3.00;1.10;;;21.10;50.90;;;;;;4997608;28;20051;-52
2020/12/19 22:52:04;;;;;;;1.20;0.65;;;21.00;51.00;;;;;;4997714;28;20166;-51
2020/12/19 22:54:30;;;;;;;2.65;1.08;;;21.00;51.10;;;;;;4997306;28;20030;-52
2020/12/19 22:56:55;;;;;;;1.23;0.75;;;21.00;51.10;;;;;;4997153;28;20027;-50
2020/12/19 22:59:21;;;;;;;0.77;0.77;;;21.00;51.20;;;;;;4996402;28;20030;-54
2020/12/19 23:01:46;;;;;;;1.23;0.90;;;21.00;51.20;;;;;;4997589;28;20074;-54
2020/12/19 23:04:12;;;;;;;1.10;0.75;;;20.90;51.20;;;;;;4997691;28;20030;-49
2020/12/19 23:06:39;;;;;;;2.65;1.00;;;20.90;51.20;;;;;;4997674;28;20042;-51
2020/12/19 23:09:07;;;;;;;1.70;1.10;;;20.90;51.30;;;;;;4997784;28;20397;-50
2020/12/19 23:11:32;;;;;;;4.40;1.30;;;20.90;51.20;;;;;;4997546;28;20069;-48
2020/12/19 23:13:58;;;;;;;1.25;0.98;;;20.90;50.90;;;;;;4997555;28;20030;-49
2020/12/19 23:16:32;;;;;;;5.32;1.65;;;20.90;51.00;;;;;;4997263;28;20059;-51
2020/12/19 23:18:59;;;;;;;4.90;1.05;;;20.80;50.60;;;;;;4997045;28;20034;-51
2020/12/19 23:21:25;;;;;;;3.08;0.80;;;20.80;50.30;;;;;;4997371;28;20038;-51
2020/12/19 23:23:51;;;;;;;2.05;1.10;;;20.80;50.20;;;;;;4997469;28;20042;-56
2020/12/19 23:26:22;;;;;;;7.68;1.05;;;20.70;50.20;;;;;;4996771;28;20038;-53
2020/12/19 23:28:48;;;;;;;1.42;1.20;;;20.70;50.10;;;;;;4997080;28;20113;-56
2020/12/19 23:31:16;;;;;;;9.00;1.33;;;20.70;50.10;;;;;;4996619;28;20066;-56
2020/12/19 23:33:41;;;;;;;1.58;1.30;;;20.60;50.20;;;;;;4996846;28;20073;-51
2020/12/19 23:36:07;;;;;;;4.75;1.33;;;20.60;50.20;;;;;;4997309;28;20413;-53
2020/12/19 23:38:33;;;;;;;1.50;0.93;;;20.50;50.30;;;;;;4997268;28;20053;-50
2020/12/19 23:40:59;;;;;;;1.50;0.93;;;20.50;50.30;;;;;;4997233;28;20031;-50
2020/12/19 23:43:25;;;;;;;1.75;0.93;;;20.50;50.40;;;;;;4996811;28;20456;-52
2020/12/19 23:45:51;;;;;;;1.83;1.10;;;20.50;50.50;;;;;;4996642;28;20057;-49
2020/12/19 23:48:17;;;;;;;3.92;1.10;;;20.50;50.50;;;;;;4997060;28;20038;-51
2020/12/19 23:50:43;;;;;;;2.25;1.08;;;20.40;50.60;;;;;;4996423;28;20353;-54
2020/12/19 23:53:08;;;;;;;2.00;1.08;;;20.40;50.60;;;;;;4996963;28;20034;-53
2020/12/19 23:55:34;;;;;;;2.53;1.00;;;20.40;50.60;;;;;;4997080;28;20046;-50
2020/12/19 23:57:59;;;;;;;1.17;1.00;;;20.30;50.60;;;;;;4996605;28;20092;-51
